sensor_id;sensor_type;location;lat;lon;timestamp;P1;durP1;ratioP1;P2;durP2;ratioP2
37877;SDS011;23715;53.652;8.516;2022-07-12T00:02:44;17.35;;;16.45;;
37877;SDS011;23715;53.652;8.516;2022-07-12T00:07:44;17.82;;;16.93;;
37877;SDS011;23715;53.652;8.516;2022-07-12T00:12:45;17.05;;;16.05;;
37877;SDS011;23715;53.652;8.516;2022-07-12T00:17:45;17.67;;;16.67;;
37877;SDS011;23715;53.652;8.516;2022-07-12T00:22:46;17.27;;;16.37;;
37877;SDS011;23715;53.652;8.516;2022-07-12T00:27:46;16.77;;;15.90;;
37877;SDS011;23715;53.652;8.516;2022-07-12T00:32:46;17.35;;;16.35;;
37877;SDS011;23715;53.652;8.516;2022-07-12T00:37:47;18.48;;;17.15;;
37877;SDS011;23715;53.652;8.516;2022-07-12T00:42:47;17.57;;;16.57;;
37877;SDS011;23715;53.652;8.516;2022-07-12T00:47:49;18.57;;;17.30;;
37877;SDS011;23715;53.652;8.516;2022-07-12T00:52:52;17.25;;;16.35;;
37877;SDS011;23715;53.652;8.516;2022-07-12T00:57:54;17.98;;;16.87;;
37877;SDS011;23715;53.652;8.516;2022-07-12T01:02:55;18.82;;;17.73;;
37877;SDS011;23715;53.652;8.516;2022-07-12T01:07:57;19.02;;;17.60;;
37877;SDS011;23715;53.652;8.516;2022-07-12T01:12:58;18.42;;;17.42;;
37877;SDS011;23715;53.652;8.516;2022-07-12T01:17:59;17.73;;;16.82;;
37877;SDS011;23715;53.652;8.516;2022-07-12T01:23:01;18.00;;;17.00;;
37877;SDS011;23715;53.652;8.516;2022-07-12T01:28:01;17.97;;;17.07;;
37877;SDS011;23715;53.652;8.516;2022-07-12T01:33:02;18.12;;;17.12;;
37877;SDS011;23715;53.652;8.516;2022-07-12T01:38:04;18.25;;;17.35;;
37877;SDS011;23715;53.652;8.516;2022-07-12T01:43:05;17.90;;;17.00;;
37877;SDS011;23715;53.652;8.516;2022-07-12T01:48:05;18.20;;;17.30;;
37877;SDS011;23715;53.652;8.516;2022-07-12T01:53:06;19.00;;;18.00;;
37877;SDS011;23715;53.652;8.516;2022-07-12T01:58:06;18.85;;;17.85;;
37877;SDS011;23715;53.652;8.516;2022-07-12T02:03:07;18.48;;;17.48;;
37877;SDS011;23715;53.652;8.516;2022-07-12T02:08:07;18.27;;;17.27;;
37877;SDS011;23715;53.652;8.516;2022-07-12T02:13:07;19.05;;;18.02;;
37877;SDS011;23715;53.652;8.516;2022-07-12T02:18:08;18.37;;;17.48;;
37877;SDS011;23715;53.652;8.516;2022-07-12T02:23:09;17.52;;;16.65;;
37877;SDS011;23715;53.652;8.516;2022-07-12T02:28:09;18.02;;;17.12;;
37877;SDS011;23715;53.652;8.516;2022-07-12T02:33:09;17.60;;;16.70;;
37877;SDS011;23715;53.652;8.516;2022-07-12T02:38:10;19.15;;;18.17;;
37877;SDS011;23715;53.652;8.516;2022-07-12T02:43:10;19.75;;;18.75;;
37877;SDS011;23715;53.652;8.516;2022-07-12T02:48:11;19.17;;;18.27;;
37877;SDS011;23715;53.652;8.516;2022-07-12T02:58:11;19.52;;;18.52;;
37877;SDS011;23715;53.652;8.516;2022-07-12T03:03:11;19.03;;;17.83;;
37877;SDS011;23715;53.652;8.516;2022-07-12T03:08:12;18.53;;;17.60;;
37877;SDS011;23715;53.652;8.516;2022-07-12T03:13:13;19.80;;;18.80;;
37877;SDS011;23715;53.652;8.516;2022-07-12T03:18:13;19.17;;;18.15;;
37877;SDS011;23715;53.652;8.516;2022-07-12T03:23:14;19.00;;;18.10;;
37877;SDS011;23715;53.652;8.516;2022-07-12T03:28:15;18.55;;;17.65;;
37877;SDS011;23715;53.652;8.516;2022-07-12T03:33:16;18.98;;;18.00;;
37877;SDS011;23715;53.652;8.516;2022-07-12T03:38:17;20.23;;;19.23;;
37877;SDS011;23715;53.652;8.516;2022-07-12T03:43:17;20.00;;;19.00;;
37877;SDS011;23715;53.652;8.516;2022-07-12T03:48:18;21.75;;;20.32;;
37877;SDS011;23715;53.652;8.516;2022-07-12T03:58:18;22.07;;;20.77;;
37877;SDS011;23715;53.652;8.516;2022-07-12T04:03:18;20.90;;;19.60;;
37877;SDS011;23715;53.652;8.516;2022-07-12T04:08:19;21.02;;;19.92;;
37877;SDS011;23715;53.652;8.516;2022-07-12T04:13:19;21.80;;;20.70;;
37877;SDS011;23715;53.652;8.516;2022-07-12T04:18:19;21.40;;;20.15;;
37877;SDS011;23715;53.652;8.516;2022-07-12T04:23:20;21.35;;;20.25;;
37877;SDS011;23715;53.652;8.516;2022-07-12T04:33:20;21.68;;;20.48;;
37877;SDS011;23715;53.652;8.516;2022-07-12T04:38:20;23.40;;;21.97;;
37877;SDS011;23715;53.652;8.516;2022-07-12T04:43:20;23.22;;;21.93;;
37877;SDS011;23715;53.652;8.516;2022-07-12T04:48:23;22.60;;;21.30;;
37877;SDS011;23715;53.652;8.516;2022-07-12T04:58:23;21.20;;;20.10;;
37877;SDS011;23715;53.652;8.516;2022-07-12T05:03:23;21.97;;;20.88;;
37877;SDS011;23715;53.652;8.516;2022-07-12T05:08:25;21.90;;;20.60;;
37877;SDS011;23715;53.652;8.516;2022-07-12T05:18:25;23.30;;;22.00;;
37877;SDS011;23715;53.652;8.516;2022-07-12T05:28:25;21.10;;;19.80;;
37877;SDS011;23715;53.652;8.516;2022-07-12T05:33:26;21.40;;;20.20;;
37877;SDS011;23715;53.652;8.516;2022-07-12T05:38:27;22.00;;;20.48;;
37877;SDS011;23715;53.652;8.516;2022-07-12T05:43:27;23.40;;;21.90;;
37877;SDS011;23715;53.652;8.516;2022-07-12T05:48:28;22.27;;;20.77;;
37877;SDS011;23715;53.652;8.516;2022-07-12T05:53:28;23.05;;;21.55;;
37877;SDS011;23715;53.652;8.516;2022-07-12T05:58:28;24.18;;;22.67;;
37877;SDS011;23715;53.652;8.516;2022-07-12T06:03:30;24.67;;;22.93;;
37877;SDS011;23715;53.652;8.516;2022-07-12T06:08:30;23.53;;;22.03;;
37877;SDS011;23715;53.652;8.516;2022-07-12T06:13:30;24.15;;;22.55;;
37877;SDS011;23715;53.652;8.516;2022-07-12T06:18:31;23.57;;;22.00;;
37877;SDS011;23715;53.652;8.516;2022-07-12T06:23:33;24.02;;;22.45;;
37877;SDS011;23715;53.652;8.516;2022-07-12T06:28:34;23.92;;;22.52;;
37877;SDS011;23715;53.652;8.516;2022-07-12T06:33:35;23.92;;;22.52;;
37877;SDS011;23715;53.652;8.516;2022-07-12T06:38:36;24.27;;;22.80;;
37877;SDS011;23715;53.652;8.516;2022-07-12T06:43:38;26.00;;;24.12;;
37877;SDS011;23715;53.652;8.516;2022-07-12T06:48:40;26.15;;;24.45;;
37877;SDS011;23715;53.652;8.516;2022-07-12T06:53:40;26.68;;;24.90;;
37877;SDS011;23715;53.652;8.516;2022-07-12T06:58:41;25.70;;;24.10;;
37877;SDS011;23715;53.652;8.516;2022-07-12T07:03:42;25.15;;;23.45;;
37877;SDS011;23715;53.652;8.516;2022-07-12T07:08:43;25.12;;;23.52;;
37877;SDS011;23715;53.652;8.516;2022-07-12T07:13:43;24.43;;;22.93;;
37877;SDS011;23715;53.652;8.516;2022-07-12T07:18:44;23.85;;;22.45;;
37877;SDS011;23715;53.652;8.516;2022-07-12T07:23:44;25.77;;;23.98;;
37877;SDS011;23715;53.652;8.516;2022-07-12T07:28:45;23.83;;;22.32;;
37877;SDS011;23715;53.652;8.516;2022-07-12T07:34:03;23.57;;;22.17;;
37877;SDS011;23715;53.652;8.516;2022-07-12T07:39:04;23.37;;;21.97;;
37877;SDS011;23715;53.652;8.516;2022-07-12T07:44:04;24.18;;;22.58;;
37877;SDS011;23715;53.652;8.516;2022-07-12T07:49:05;23.90;;;22.30;;
37877;SDS011;23715;53.652;8.516;2022-07-12T07:54:05;23.22;;;21.93;;
37877;SDS011;23715;53.652;8.516;2022-07-12T07:59:06;24.47;;;22.98;;
37877;SDS011;23715;53.652;8.516;2022-07-12T08:04:06;22.77;;;21.37;;
37877;SDS011;23715;53.652;8.516;2022-07-12T08:09:08;24.12;;;22.73;;
37877;SDS011;23715;53.652;8.516;2022-07-12T08:14:09;22.83;;;21.53;;
37877;SDS011;23715;53.652;8.516;2022-07-12T08:19:10;22.25;;;20.90;;
37877;SDS011;23715;53.652;8.516;2022-07-12T08:24:10;22.67;;;21.37;;
37877;SDS011;23715;53.652;8.516;2022-07-12T08:29:10;22.30;;;21.00;;
37877;SDS011;23715;53.652;8.516;2022-07-12T08:34:11;22.45;;;21.20;;
37877;SDS011;23715;53.652;8.516;2022-07-12T08:39:11;23.12;;;21.80;;
37877;SDS011;23715;53.652;8.516;2022-07-12T08:44:12;24.72;;;23.32;;
37877;SDS011;23715;53.652;8.516;2022-07-12T08:54:13;24.82;;;23.22;;
37877;SDS011;23715;53.652;8.516;2022-07-12T09:04:18;25.88;;;24.32;;
37877;SDS011;23715;53.652;8.516;2022-07-12T09:09:27;24.35;;;22.75;;
37877;SDS011;23715;53.652;8.516;2022-07-12T09:14:32;24.82;;;23.32;;
37877;SDS011;23715;53.652;8.516;2022-07-12T09:19:33;26.42;;;24.50;;
37877;SDS011;23715;53.652;8.516;2022-07-12T09:24:33;23.57;;;22.17;;
37877;SDS011;23715;53.652;8.516;2022-07-12T09:29:48;24.65;;;23.15;;
37877;SDS011;23715;53.652;8.516;2022-07-12T09:34:55;25.52;;;23.92;;
37877;SDS011;23715;53.652;8.516;2022-07-12T09:40:15;24.47;;;23.07;;
37877;SDS011;23715;53.652;8.516;2022-07-12T09:45:25;25.15;;;23.55;;
37877;SDS011;23715;53.652;8.516;2022-07-12T09:50:36;26.20;;;24.50;;
37877;SDS011;23715;53.652;8.516;2022-07-12T09:55:38;25.65;;;24.15;;
37877;SDS011;23715;53.652;8.516;2022-07-12T10:00:41;24.75;;;23.35;;
37877;SDS011;23715;53.652;8.516;2022-07-12T10:05:42;24.30;;;22.90;;
37877;SDS011;23715;53.652;8.516;2022-07-12T10:10:42;24.40;;;23.00;;
37877;SDS011;23715;53.652;8.516;2022-07-12T10:15:43;24.35;;;22.82;;
37877;SDS011;23715;53.652;8.516;2022-07-12T10:20:49;26.80;;;25.20;;
37877;SDS011;23715;53.652;8.516;2022-07-12T10:25:49;24.47;;;23.07;;
37877;SDS011;23715;53.652;8.516;2022-07-12T10:30:50;26.05;;;24.25;;
37877;SDS011;23715;53.652;8.516;2022-07-12T10:35:58;25.25;;;23.55;;
37877;SDS011;23715;53.652;8.516;2022-07-12T10:41:17;25.88;;;24.20;;
37877;SDS011;23715;53.652;8.516;2022-07-12T10:46:22;23.95;;;22.65;;
37877;SDS011;23715;53.652;8.516;2022-07-12T10:51:23;24.87;;;23.38;;
37877;SDS011;23715;53.652;8.516;2022-07-12T11:01:26;24.92;;;23.45;;
37877;SDS011;23715;53.652;8.516;2022-07-12T11:06:33;23.77;;;22.27;;
37877;SDS011;23715;53.652;8.516;2022-07-12T11:11:41;24.52;;;23.02;;
37877;SDS011;23715;53.652;8.516;2022-07-12T11:16:43;24.12;;;22.73;;
37877;SDS011;23715;53.652;8.516;2022-07-12T11:21:45;24.00;;;22.60;;
37877;SDS011;23715;53.652;8.516;2022-07-12T11:26:47;25.05;;;23.45;;
37877;SDS011;23715;53.652;8.516;2022-07-12T11:31:48;23.80;;;22.30;;
37877;SDS011;23715;53.652;8.516;2022-07-12T11:36:51;23.98;;;22.58;;
37877;SDS011;23715;53.652;8.516;2022-07-12T11:41:55;24.23;;;22.80;;
37877;SDS011;23715;53.652;8.516;2022-07-12T11:46:56;23.62;;;22.22;;
37877;SDS011;23715;53.652;8.516;2022-07-12T11:51:56;25.25;;;23.75;;
37877;SDS011;23715;53.652;8.516;2022-07-12T11:57:06;24.55;;;23.05;;
37877;SDS011;23715;53.652;8.516;2022-07-12T12:02:12;23.90;;;22.50;;
37877;SDS011;23715;53.652;8.516;2022-07-12T12:07:14;23.87;;;22.35;;
37877;SDS011;23715;53.652;8.516;2022-07-12T12:12:15;23.80;;;22.40;;
37877;SDS011;23715;53.652;8.516;2022-07-12T12:17:16;24.67;;;22.87;;
37877;SDS011;23715;53.652;8.516;2022-07-12T12:22:31;23.32;;;21.93;;
37877;SDS011;23715;53.652;8.516;2022-07-12T12:27:33;23.45;;;21.95;;
37877;SDS011;23715;53.652;8.516;2022-07-12T12:32:44;23.60;;;22.20;;
37877;SDS011;23715;53.652;8.516;2022-07-12T12:37:49;23.18;;;21.57;;
37877;SDS011;23715;53.652;8.516;2022-07-12T12:43:10;22.15;;;20.50;;
37877;SDS011;23715;53.652;8.516;2022-07-12T12:48:17;22.27;;;20.88;;
37877;SDS011;23715;53.652;8.516;2022-07-12T12:53:22;21.68;;;20.37;;
37877;SDS011;23715;53.652;8.516;2022-07-12T12:58:22;21.23;;;20.03;;
37877;SDS011;23715;53.652;8.516;2022-07-12T13:03:24;20.68;;;19.37;;
37877;SDS011;23715;53.652;8.516;2022-07-12T13:08:24;20.37;;;19.17;;
37877;SDS011;23715;53.652;8.516;2022-07-12T13:13:25;20.08;;;19.00;;
37877;SDS011;23715;53.652;8.516;2022-07-12T13:18:26;20.52;;;19.32;;
37877;SDS011;23715;53.652;8.516;2022-07-12T13:23:26;20.40;;;19.00;;
37877;SDS011;23715;53.652;8.516;2022-07-12T13:28:27;20.20;;;19.10;;
37877;SDS011;23715;53.652;8.516;2022-07-12T13:33:29;19.92;;;18.92;;
37877;SDS011;23715;53.652;8.516;2022-07-12T13:38:29;19.73;;;18.65;;
37877;SDS011;23715;53.652;8.516;2022-07-12T13:43:30;19.73;;;18.73;;
37877;SDS011;23715;53.652;8.516;2022-07-12T13:53:31;21.50;;;20.27;;
37877;SDS011;23715;53.652;8.516;2022-07-12T13:58:32;20.72;;;19.50;;
37877;SDS011;23715;53.652;8.516;2022-07-12T14:08:32;19.20;;;18.20;;
37877;SDS011;23715;53.652;8.516;2022-07-12T14:13:32;20.10;;;18.90;;
37877;SDS011;23715;53.652;8.516;2022-07-12T14:18:33;19.65;;;18.65;;
37877;SDS011;23715;53.652;8.516;2022-07-12T14:28:33;20.65;;;19.65;;
37877;SDS011;23715;53.652;8.516;2022-07-12T14:38:33;21.00;;;19.90;;
37877;SDS011;23715;53.652;8.516;2022-07-12T14:43:34;19.85;;;18.85;;
37877;SDS011;23715;53.652;8.516;2022-07-12T14:53:34;22.10;;;20.90;;
37877;SDS011;23715;53.652;8.516;2022-07-12T14:58:35;23.67;;;22.37;;
37877;SDS011;23715;53.652;8.516;2022-07-12T15:03:35;22.95;;;21.62;;
37877;SDS011;23715;53.652;8.516;2022-07-12T15:08:36;22.05;;;20.95;;
37877;SDS011;23715;53.652;8.516;2022-07-12T15:13:36;22.80;;;21.60;;
37877;SDS011;23715;53.652;8.516;2022-07-12T15:18:37;23.00;;;21.55;;
37877;SDS011;23715;53.652;8.516;2022-07-12T15:23:37;21.70;;;20.57;;
37877;SDS011;23715;53.652;8.516;2022-07-12T15:28:48;23.05;;;21.85;;
37877;SDS011;23715;53.652;8.516;2022-07-12T15:33:51;21.87;;;20.62;;
37877;SDS011;23715;53.652;8.516;2022-07-12T15:38:52;22.17;;;21.07;;
37877;SDS011;23715;53.652;8.516;2022-07-12T15:43:53;23.38;;;22.17;;
37877;SDS011;23715;53.652;8.516;2022-07-12T15:48:53;21.57;;;20.43;;
37877;SDS011;23715;53.652;8.516;2022-07-12T15:53:56;22.87;;;21.57;;
37877;SDS011;23715;53.652;8.516;2022-07-12T15:58:57;22.00;;;20.77;;
37877;SDS011;23715;53.652;8.516;2022-07-12T16:03:57;24.20;;;22.90;;
37877;SDS011;23715;53.652;8.516;2022-07-12T16:13:57;23.57;;;22.22;;
37877;SDS011;23715;53.652;8.516;2022-07-12T16:18:57;22.37;;;21.20;;
37877;SDS011;23715;53.652;8.516;2022-07-12T16:23:58;24.45;;;23.15;;
37877;SDS011;23715;53.652;8.516;2022-07-12T16:28:58;22.90;;;21.70;;
37877;SDS011;23715;53.652;8.516;2022-07-12T16:33:59;23.33;;;22.13;;
37877;SDS011;23715;53.652;8.516;2022-07-12T16:38:59;23.22;;;21.97;;
37877;SDS011;23715;53.652;8.516;2022-07-12T16:43:59;21.15;;;20.00;;
37877;SDS011;23715;53.652;8.516;2022-07-12T16:49:00;22.60;;;21.35;;
37877;SDS011;23715;53.652;8.516;2022-07-12T16:54:00;21.75;;;20.65;;
37877;SDS011;23715;53.652;8.516;2022-07-12T16:59:01;22.10;;;20.90;;
37877;SDS011;23715;53.652;8.516;2022-07-12T17:04:02;22.50;;;21.20;;
37877;SDS011;23715;53.652;8.516;2022-07-12T17:09:03;23.38;;;21.85;;
37877;SDS011;23715;53.652;8.516;2022-07-12T17:14:04;24.30;;;22.87;;
37877;SDS011;23715;53.652;8.516;2022-07-12T17:19:04;22.02;;;20.72;;
37877;SDS011;23715;53.652;8.516;2022-07-12T17:29:04;21.60;;;20.20;;
37877;SDS011;23715;53.652;8.516;2022-07-12T17:34:04;20.40;;;19.10;;
37877;SDS011;23715;53.652;8.516;2022-07-12T17:39:05;22.10;;;20.15;;
37877;SDS011;23715;53.652;8.516;2022-07-12T17:44:05;22.20;;;20.90;;
37877;SDS011;23715;53.652;8.516;2022-07-12T17:49:06;20.80;;;19.57;;
37877;SDS011;23715;53.652;8.516;2022-07-12T17:54:07;22.58;;;20.85;;
37877;SDS011;23715;53.652;8.516;2022-07-12T17:59:07;21.02;;;19.75;;
37877;SDS011;23715;53.652;8.516;2022-07-12T18:04:08;21.73;;;20.52;;
37877;SDS011;23715;53.652;8.516;2022-07-12T18:09:09;21.57;;;20.37;;
37877;SDS011;23715;53.652;8.516;2022-07-12T18:14:10;23.92;;;22.58;;
37877;SDS011;23715;53.652;8.516;2022-07-12T18:19:30;22.27;;;21.00;;
37877;SDS011;23715;53.652;8.516;2022-07-12T18:24:31;23.03;;;21.63;;
37877;SDS011;23715;53.652;8.516;2022-07-12T18:29:31;23.67;;;22.27;;
37877;SDS011;23715;53.652;8.516;2022-07-12T18:34:31;23.25;;;21.97;;
37877;SDS011;23715;53.652;8.516;2022-07-12T18:39:32;23.60;;;22.25;;
37877;SDS011;23715;53.652;8.516;2022-07-12T18:44:33;24.45;;;23.05;;
37877;SDS011;23715;53.652;8.516;2022-07-12T18:49:36;24.00;;;22.60;;
37877;SDS011;23715;53.652;8.516;2022-07-12T18:54:42;23.90;;;22.60;;
37877;SDS011;23715;53.652;8.516;2022-07-12T18:59:39;25.40;;;23.95;;
37877;SDS011;23715;53.652;8.516;2022-07-12T19:04:39;26.10;;;24.53;;
37877;SDS011;23715;53.652;8.516;2022-07-12T19:09:40;25.68;;;23.83;;
37877;SDS011;23715;53.652;8.516;2022-07-12T19:14:41;26.15;;;24.55;;
37877;SDS011;23715;53.652;8.516;2022-07-12T19:19:41;26.00;;;24.18;;
37877;SDS011;23715;53.652;8.516;2022-07-12T19:24:41;26.97;;;25.48;;
37877;SDS011;23715;53.652;8.516;2022-07-12T19:29:42;26.70;;;25.10;;
37877;SDS011;23715;53.652;8.516;2022-07-12T19:34:43;26.12;;;24.63;;
37877;SDS011;23715;53.652;8.516;2022-07-12T19:39:43;27.05;;;25.45;;
37877;SDS011;23715;53.652;8.516;2022-07-12T19:49:43;28.75;;;26.82;;
37877;SDS011;23715;53.652;8.516;2022-07-12T19:54:43;27.40;;;25.80;;
37877;SDS011;23715;53.652;8.516;2022-07-12T19:59:44;25.72;;;24.23;;
37877;SDS011;23715;53.652;8.516;2022-07-12T20:04:49;26.70;;;25.00;;
37877;SDS011;23715;53.652;8.516;2022-07-12T20:09:50;25.45;;;24.02;;
37877;SDS011;23715;53.652;8.516;2022-07-12T20:14:51;25.95;;;24.23;;
37877;SDS011;23715;53.652;8.516;2022-07-12T20:19:51;24.92;;;23.42;;
37877;SDS011;23715;53.652;8.516;2022-07-12T20:24:51;26.17;;;24.67;;
37877;SDS011;23715;53.652;8.516;2022-07-12T20:29:53;26.15;;;24.50;;
37877;SDS011;23715;53.652;8.516;2022-07-12T20:34:53;24.60;;;23.15;;
37877;SDS011;23715;53.652;8.516;2022-07-12T20:39:54;25.72;;;24.05;;
37877;SDS011;23715;53.652;8.516;2022-07-12T20:44:54;23.52;;;22.02;;
37877;SDS011;23715;53.652;8.516;2022-07-12T20:54:54;24.75;;;23.25;;
37877;SDS011;23715;53.652;8.516;2022-07-12T20:59:54;25.68;;;24.18;;
37877;SDS011;23715;53.652;8.516;2022-07-12T21:04:55;25.50;;;24.00;;
37877;SDS011;23715;53.652;8.516;2022-07-12T21:09:55;24.85;;;23.35;;
37877;SDS011;23715;53.652;8.516;2022-07-12T21:14:56;24.37;;;22.87;;
37877;SDS011;23715;53.652;8.516;2022-07-12T21:19:56;25.00;;;23.50;;
37877;SDS011;23715;53.652;8.516;2022-07-12T21:24:56;25.50;;;23.83;;
37877;SDS011;23715;53.652;8.516;2022-07-12T21:29:57;25.80;;;24.10;;
37877;SDS011;23715;53.652;8.516;2022-07-12T21:34:59;25.45;;;23.85;;
37877;SDS011;23715;53.652;8.516;2022-07-12T21:40:00;26.00;;;24.30;;
37877;SDS011;23715;53.652;8.516;2022-07-12T21:45:00;25.65;;;24.07;;
37877;SDS011;23715;53.652;8.516;2022-07-12T21:50:00;28.00;;;26.10;;
37877;SDS011;23715;53.652;8.516;2022-07-12T21:55:01;24.87;;;23.38;;
37877;SDS011;23715;53.652;8.516;2022-07-12T22:00:02;27.22;;;24.85;;
37877;SDS011;23715;53.652;8.516;2022-07-12T22:05:04;26.42;;;24.47;;
37877;SDS011;23715;53.652;8.516;2022-07-12T22:10:05;26.03;;;24.30;;
37877;SDS011;23715;53.652;8.516;2022-07-12T22:15:06;25.95;;;24.02;;
37877;SDS011;23715;53.652;8.516;2022-07-12T22:20:06;26.56;;;24.64;;
37877;SDS011;23715;53.652;8.516;2022-07-12T22:25:07;28.07;;;25.82;;
37877;SDS011;23715;53.652;8.516;2022-07-12T22:30:08;26.07;;;24.27;;
37877;SDS011;23715;53.652;8.516;2022-07-12T22:35:09;26.35;;;24.65;;
37877;SDS011;23715;53.652;8.516;2022-07-12T22:40:09;25.75;;;24.15;;
37877;SDS011;23715;53.652;8.516;2022-07-12T22:45:10;26.68;;;24.92;;
37877;SDS011;23715;53.652;8.516;2022-07-12T22:50:11;26.85;;;24.90;;
37877;SDS011;23715;53.652;8.516;2022-07-12T22:55:11;27.37;;;25.55;;
37877;SDS011;23715;53.652;8.516;2022-07-12T23:05:11;26.68;;;24.87;;
37877;SDS011;23715;53.652;8.516;2022-07-12T23:10:12;25.92;;;24.07;;
37877;SDS011;23715;53.652;8.516;2022-07-12T23:15:12;27.52;;;25.52;;
37877;SDS011;23715;53.652;8.516;2022-07-12T23:20:12;27.00;;;25.00;;
37877;SDS011;23715;53.652;8.516;2022-07-12T23:25:13;27.15;;;25.12;;
37877;SDS011;23715;53.652;8.516;2022-07-12T23:30:13;27.85;;;25.75;;
37877;SDS011;23715;53.652;8.516;2022-07-12T23:35:14;26.68;;;24.87;;
37877;SDS011;23715;53.652;8.516;2022-07-12T23:40:14;25.40;;;23.70;;
37877;SDS011;23715;53.652;8.516;2022-07-12T23:50:14;27.30;;;25.40;;
37877;SDS011;23715;53.652;8.516;2022-07-12T23:55:14;26.45;;;24.40;;
